createdAt,value
2018-09-12T00:00:38.649Z,4.00
2018-09-12T00:01:38.664Z,4.00
2018-09-12T00:02:38.679Z,4.00
2018-09-12T00:03:38.793Z,4.00
2018-09-12T00:04:38.714Z,4.00
2018-09-12T00:05:38.740Z,4.00
2018-09-12T00:06:38.746Z,4.00
2018-09-12T00:07:38.765Z,4.00
2018-09-12T00:08:38.775Z,4.00
2018-09-12T00:09:38.795Z,4.00
2018-09-12T00:10:38.809Z,4.00
2018-09-12T00:11:38.837Z,4.00
2018-09-12T00:12:38.842Z,4.00
2018-09-12T00:13:38.860Z,4.00
2018-09-12T00:14:38.879Z,4.00
2018-09-12T00:15:38.892Z,4.00
2018-09-12T00:16:38.908Z,4.00
2018-09-12T00:17:38.925Z,4.00
2018-09-12T00:18:38.950Z,4.00
2018-09-12T00:19:38.962Z,4.00
2018-09-12T00:20:38.987Z,4.00
2018-09-12T00:21:38.992Z,4.00
2018-09-12T00:22:39.069Z,4.00
2018-09-12T00:23:39.110Z,4.00
2018-09-12T00:24:39.041Z,4.00
2018-09-12T00:25:39.260Z,4.00
2018-09-12T00:26:39.075Z,4.00
2018-09-12T00:27:39.091Z,4.00
2018-09-12T00:28:39.107Z,4.00
2018-09-12T00:29:39.123Z,4.00
2018-09-12T00:30:39.142Z,4.00
2018-09-12T00:31:39.156Z,4.00
2018-09-12T00:32:39.171Z,4.00
2018-09-12T00:33:39.192Z,4.00
2018-09-12T00:34:39.221Z,4.00
2018-09-12T00:35:39.221Z,4.00
2018-09-12T00:36:39.354Z,4.00
2018-09-12T00:37:39.253Z,4.00
2018-09-12T00:38:39.274Z,4.00
2018-09-12T00:39:39.292Z,4.00
2018-09-12T00:40:39.303Z,4.00
2018-09-12T00:41:39.319Z,4.00
2018-09-12T00:42:39.339Z,4.00
2018-09-12T00:43:39.361Z,4.00
2018-09-12T00:44:39.382Z,4.00
2018-09-12T00:45:39.384Z,4.00
2018-09-12T00:46:39.398Z,4.00
2018-09-12T00:47:39.417Z,4.00
2018-09-12T00:48:39.635Z,4.00
2018-09-12T00:49:39.460Z,4.00
2018-09-12T00:50:39.474Z,4.00
2018-09-12T00:51:39.481Z,4.00
2018-09-12T00:52:39.500Z,4.00
2018-09-12T00:53:39.515Z,4.00
2018-09-12T00:54:39.532Z,4.00
2018-09-12T00:55:39.629Z,4.00
2018-09-12T00:56:39.627Z,4.00
2018-09-12T00:57:39.583Z,4.00
2018-09-12T00:58:39.603Z,4.00
2018-09-12T00:59:39.614Z,4.00
2018-09-12T01:00:39.637Z,4.00
2018-09-12T01:01:39.652Z,4.00
2018-09-12T01:02:39.661Z,4.00
2018-09-12T01:03:39.678Z,4.00
2018-09-12T01:04:39.698Z,4.00
2018-09-12T01:05:39.712Z,4.00
2018-09-12T01:06:39.742Z,4.00
2018-09-12T01:07:39.750Z,4.00
2018-09-12T01:08:39.761Z,4.00
2018-09-12T01:09:39.774Z,4.00
2018-09-12T01:10:39.791Z,4.00
2018-09-12T01:11:39.809Z,4.00
2018-09-12T01:12:39.823Z,4.00
2018-09-12T01:13:39.840Z,4.00
2018-09-12T01:14:39.865Z,4.00
2018-09-12T01:15:39.875Z,4.00
2018-09-12T01:16:39.889Z,4.00
2018-09-12T01:17:39.908Z,4.00
2018-09-12T01:18:39.921Z,4.00
2018-09-12T01:19:39.939Z,4.00
2018-09-12T01:20:39.955Z,4.00
2018-09-12T01:21:39.975Z,4.00
2018-09-12T01:22:39.992Z,4.00
2018-09-12T01:23:40.003Z,4.00
2018-09-12T01:24:40.023Z,4.00
2018-09-12T01:25:40.036Z,4.00
2018-09-12T01:26:40.056Z,4.00
2018-09-12T01:27:40.070Z,4.00
2018-09-12T01:28:40.188Z,4.00
2018-09-12T01:29:40.099Z,4.00
2018-09-12T01:30:40.116Z,4.00
2018-09-12T01:31:40.133Z,4.00
2018-09-12T01:32:40.199Z,4.00
2018-09-12T01:33:40.166Z,4.00
2018-09-12T01:34:40.189Z,4.00
2018-09-12T01:35:40.199Z,4.00
2018-09-12T01:36:40.217Z,4.00
2018-09-12T01:37:40.240Z,4.00
2018-09-12T01:38:40.247Z,4.00
2018-09-12T01:39:40.278Z,4.00
2018-09-12T01:40:40.278Z,4.00
2018-09-12T01:41:40.300Z,4.00
2018-09-12T01:42:40.310Z,4.00
2018-09-12T01:43:40.338Z,4.00
2018-09-12T01:44:40.349Z,4.00
2018-09-12T01:45:40.361Z,4.00
2018-09-12T01:46:40.385Z,4.00
2018-09-12T01:47:40.468Z,4.00
2018-09-12T01:48:40.412Z,4.00
2018-09-12T01:49:40.423Z,4.00
2018-09-12T01:50:40.441Z,4.00
2018-09-12T01:51:40.497Z,4.00
2018-09-12T01:52:40.474Z,4.00
2018-09-12T01:53:40.487Z,4.00
2018-09-12T01:54:40.503Z,4.00
2018-09-12T01:55:40.524Z,4.00
2018-09-12T01:56:40.538Z,4.00
2018-09-12T01:57:40.559Z,4.00
2018-09-12T01:58:40.567Z,4.00
2018-09-12T01:59:40.595Z,4.00
2018-09-12T02:00:40.601Z,4.00
2018-09-12T02:01:40.619Z,4.00
2018-09-12T02:05:40.678Z,4.00
2018-09-12T02:06:40.696Z,4.00
2018-09-12T02:07:40.728Z,4.00
2018-09-12T02:08:40.729Z,4.00
2018-09-12T02:09:40.744Z,4.00
2018-09-12T02:10:40.761Z,4.00
2018-09-12T02:11:40.778Z,4.00
2018-09-12T02:12:40.794Z,4.00
2018-09-12T02:13:40.809Z,4.00
2018-09-12T02:14:40.823Z,4.00
2018-09-12T02:15:40.839Z,4.00
2018-09-12T02:16:40.857Z,4.00
2018-09-12T02:17:40.875Z,4.00
2018-09-12T02:18:40.887Z,4.00
2018-09-12T02:19:40.906Z,4.00
2018-09-12T02:20:40.919Z,4.00
2018-09-12T02:21:40.939Z,4.00
2018-09-12T02:22:40.954Z,4.00
2018-09-12T02:23:40.976Z,4.00
2018-09-12T02:24:40.984Z,4.00
2018-09-12T02:25:41.001Z,4.00
2018-09-12T02:26:41.021Z,4.00
2018-09-12T02:27:41.031Z,4.00
2018-09-12T02:28:41.049Z,4.00
2018-09-12T02:29:41.062Z,4.00
2018-09-12T02:30:41.085Z,4.00
2018-09-12T02:31:41.093Z,4.00
2018-09-12T02:32:41.110Z,4.00
2018-09-12T02:33:41.128Z,4.00
2018-09-12T02:34:41.150Z,4.00
2018-09-12T02:35:41.160Z,4.00
2018-09-12T02:36:41.178Z,4.00
2018-09-12T02:37:41.191Z,4.00
2018-09-12T02:38:41.232Z,4.00
2018-09-12T02:39:41.244Z,4.00
2018-09-12T02:40:41.239Z,4.00
2018-09-12T02:41:41.258Z,4.00
2018-09-12T02:42:41.274Z,4.00
2018-09-12T02:43:41.287Z,4.00
2018-09-12T02:44:41.303Z,4.00
2018-09-12T02:45:41.321Z,4.00
2018-09-12T02:46:41.347Z,4.00
2018-09-12T02:47:41.361Z,4.00
2018-09-12T02:48:41.370Z,4.00
2018-09-12T02:49:41.384Z,4.00
2018-09-12T02:50:41.402Z,4.00
2018-09-12T02:51:41.428Z,4.00
2018-09-12T02:52:41.434Z,4.00
2018-09-12T02:53:41.454Z,4.00
2018-09-12T02:54:41.469Z,4.00
2018-09-12T02:55:41.499Z,4.00
2018-09-12T02:56:41.503Z,4.00
2018-09-12T02:57:41.513Z,4.00
2018-09-12T02:58:41.544Z,4.00
2018-09-12T02:59:41.548Z,4.00
2018-09-12T03:00:41.561Z,4.00
2018-09-12T03:01:41.580Z,4.00
2018-09-12T03:02:41.597Z,4.00
2018-09-12T03:03:41.613Z,4.00
2018-09-12T03:04:41.626Z,4.00
2018-09-12T03:05:41.639Z,4.00
2018-09-12T03:06:41.657Z,4.00
2018-09-12T03:07:41.675Z,4.00
2018-09-12T03:08:41.692Z,4.00
2018-09-12T03:09:41.704Z,4.00
2018-09-12T03:10:41.718Z,4.00
2018-09-12T03:11:41.792Z,4.00
2018-09-12T03:12:42.086Z,4.00
2018-09-12T03:13:41.768Z,4.00
2018-09-12T03:14:41.794Z,4.00
2018-09-12T03:15:41.800Z,4.00
2018-09-12T03:16:41.817Z,4.00
2018-09-12T03:17:41.833Z,4.00
2018-09-12T03:18:41.847Z,4.00
2018-09-12T03:19:41.872Z,4.00
2018-09-12T03:20:41.955Z,4.00
2018-09-12T03:21:41.895Z,4.00
2018-09-12T03:22:41.914Z,4.00
2018-09-12T03:23:41.934Z,4.00
2018-09-12T03:24:41.943Z,4.00
2018-09-12T03:25:41.962Z,4.00
2018-09-12T03:26:41.977Z,4.00
2018-09-12T03:27:41.992Z,4.00
2018-09-12T03:28:42.009Z,4.00
2018-09-12T03:29:42.024Z,4.00
2018-09-12T03:30:42.041Z,4.00
2018-09-12T03:31:42.055Z,4.00
2018-09-12T03:32:42.073Z,4.00
2018-09-12T03:33:42.089Z,4.00
2018-09-12T03:34:42.109Z,4.00
2018-09-12T03:35:42.120Z,4.00
2018-09-12T03:36:42.137Z,4.00
2018-09-12T03:37:42.159Z,4.00
2018-09-12T03:38:42.173Z,4.00
2018-09-12T03:39:42.186Z,4.00
2018-09-12T03:40:42.203Z,4.00
2018-09-12T03:41:42.217Z,4.00
2018-09-12T03:42:42.231Z,4.00
2018-09-12T03:43:42.252Z,4.00
2018-09-12T03:44:42.274Z,4.00
2018-09-12T03:45:42.407Z,4.00
2018-09-12T03:46:42.321Z,4.00
2018-09-12T03:47:42.317Z,4.00
2018-09-12T03:48:42.328Z,4.00
2018-09-12T03:49:42.379Z,4.00
2018-09-12T03:50:42.397Z,4.00
2018-09-12T03:51:42.376Z,4.00
2018-09-12T03:52:42.397Z,4.00
2018-09-12T03:53:42.407Z,4.00
2018-09-12T03:54:42.424Z,4.00
2018-09-12T03:55:42.445Z,4.00
2018-09-12T03:56:42.456Z,4.00
2018-09-12T03:57:42.475Z,4.00
2018-09-12T03:58:42.532Z,4.00
2018-09-12T03:59:42.513Z,4.00
2018-09-12T04:00:42.548Z,4.00
2018-09-12T04:01:42.541Z,4.00
2018-09-12T04:02:42.616Z,4.00
2018-09-12T04:03:42.582Z,4.00
2018-09-12T04:04:42.591Z,4.00
2018-09-12T04:05:42.598Z,4.00
2018-09-12T04:06:42.616Z,4.00
2018-09-12T04:07:42.634Z,4.00
2018-09-12T04:08:42.647Z,4.00
2018-09-12T04:09:42.674Z,4.00
2018-09-12T04:10:42.680Z,4.00
2018-09-12T04:11:42.696Z,4.00
2018-09-12T04:12:42.714Z,4.00
2018-09-12T04:13:42.744Z,4.00
2018-09-12T04:14:42.743Z,4.00
2018-09-12T04:15:42.764Z,4.00
2018-09-12T04:16:42.795Z,4.00
2018-09-12T04:17:42.794Z,4.00
2018-09-12T04:18:42.855Z,4.00
2018-09-12T04:19:42.823Z,4.00
2018-09-12T04:20:42.848Z,4.00
2018-09-12T04:21:42.855Z,4.00
2018-09-12T04:22:42.874Z,4.00
2018-09-12T04:23:42.887Z,4.00
2018-09-12T04:24:42.989Z,4.00
2018-09-12T04:25:42.921Z,4.00
2018-09-12T04:26:42.933Z,4.00
2018-09-12T04:27:42.953Z,4.00
2018-09-12T04:28:42.970Z,4.00
2018-09-12T04:29:42.983Z,4.00
2018-09-12T04:30:43.013Z,4.00
2018-09-12T04:31:43.024Z,0.00
2018-09-12T04:32:43.035Z,4.00
2018-09-12T04:33:43.046Z,4.00
2018-09-12T04:34:43.059Z,4.00
2018-09-12T04:35:43.077Z,4.00
2018-09-12T04:36:43.095Z,8.00
2018-09-12T04:37:43.132Z,8.00
2018-09-12T04:38:43.134Z,4.00
2018-09-12T04:39:43.143Z,8.00
2018-09-12T04:40:43.176Z,4.00
2018-09-12T04:41:43.187Z,8.00
2018-09-12T04:42:43.261Z,8.00
2018-09-12T04:43:43.208Z,8.00
2018-09-12T04:44:43.272Z,8.00
2018-09-12T04:45:43.242Z,12.00
2018-09-12T04:47:43.277Z,12.00
2018-09-12T04:48:43.285Z,12.00
2018-09-12T04:49:43.321Z,20.00
2018-09-12T04:50:43.314Z,20.00
2018-09-12T04:51:43.329Z,24.00
2018-09-12T04:52:43.349Z,24.00
2018-09-12T04:53:43.375Z,32.00
2018-09-12T04:54:43.540Z,32.00
2018-09-12T04:55:43.392Z,32.00
2018-09-12T04:56:43.447Z,36.00
2018-09-12T04:57:43.487Z,40.00
2018-09-12T04:58:43.444Z,44.00
2018-09-12T04:59:43.512Z,48.00
2018-09-12T05:00:43.473Z,52.00
2018-09-12T05:01:43.491Z,48.00
2018-09-12T05:02:43.509Z,52.00
2018-09-12T05:03:43.518Z,52.00
2018-09-12T05:04:43.541Z,56.00
2018-09-12T05:05:43.557Z,56.00
2018-09-12T05:06:43.564Z,60.00
2018-09-12T05:07:43.597Z,60.00
2018-09-12T05:08:43.603Z,60.00
2018-09-12T05:09:43.611Z,64.00
2018-09-12T05:10:44.272Z,72.00
2018-09-12T05:11:43.660Z,72.00
2018-09-12T05:12:43.664Z,84.00
2018-09-12T05:13:43.677Z,92.00
2018-09-12T05:14:43.731Z,96.00
2018-09-12T05:15:43.753Z,100.00
2018-09-12T05:16:43.813Z,104.00
2018-09-12T05:17:43.951Z,112.00
2018-09-12T05:18:43.756Z,112.00
2018-09-12T05:19:43.772Z,120.00
2018-09-12T05:20:43.787Z,124.00
2018-09-12T05:21:43.835Z,128.00
2018-09-12T05:22:43.837Z,140.00
2018-09-12T05:23:43.832Z,144.00
2018-09-12T05:24:43.851Z,152.00
2018-09-12T05:25:43.866Z,148.00
2018-09-12T05:26:43.881Z,144.00
2018-09-12T05:27:43.897Z,152.00
2018-09-12T05:28:43.924Z,176.00
2018-09-12T05:29:43.935Z,188.00
2018-09-12T05:30:43.944Z,196.00
2018-09-12T05:31:43.961Z,200.00
2018-09-12T05:32:43.975Z,208.00
2018-09-12T05:33:43.989Z,224.00
2018-09-12T05:34:44.010Z,256.00
2018-09-12T05:35:44.024Z,276.00
2018-09-12T05:36:44.039Z,280.00
2018-09-12T05:37:44.053Z,296.00
2018-09-12T05:38:44.083Z,336.00
2018-09-12T05:39:44.086Z,376.00
2018-09-12T05:40:44.139Z,372.00
2018-09-12T05:41:44.116Z,380.00
2018-09-12T05:42:44.132Z,368.00
2018-09-12T05:43:44.150Z,364.00
2018-09-12T05:44:44.163Z,380.00
2018-09-12T05:45:44.195Z,388.00
2018-09-12T05:46:44.195Z,388.00
2018-09-12T05:47:44.217Z,428.00
2018-09-12T05:48:44.249Z,432.00
2018-09-12T05:49:44.242Z,428.00
2018-09-12T05:50:44.258Z,456.00
2018-09-12T05:51:44.277Z,460.00
2018-09-12T05:52:44.294Z,440.00
2018-09-12T05:53:44.304Z,452.00
2018-09-12T05:54:44.324Z,484.00
2018-09-12T05:55:44.359Z,508.00
2018-09-12T05:56:44.357Z,512.00
2018-09-12T05:57:44.368Z,508.00
2018-09-12T05:58:44.385Z,516.00
2018-09-12T05:59:44.411Z,528.00
2018-09-12T06:00:44.417Z,536.00
2018-09-12T06:01:44.431Z,556.00
2018-09-12T06:02:44.448Z,592.00
2018-09-12T06:03:44.474Z,600.00
2018-09-12T06:04:44.518Z,600.00
2018-09-12T06:05:44.494Z,624.00
2018-09-12T06:06:44.534Z,644.00
2018-09-12T06:07:44.526Z,664.00
2018-09-12T06:08:44.546Z,700.00
2018-09-12T06:09:44.558Z,720.00
2018-09-12T06:10:44.577Z,744.00
2018-09-12T06:11:44.593Z,776.00
2018-09-12T06:12:44.605Z,796.00
2018-09-12T06:13:44.677Z,796.00
2018-09-12T06:14:44.657Z,816.00
2018-09-12T06:15:44.814Z,832.00
2018-09-12T06:16:45.093Z,824.00
2018-09-12T06:17:44.753Z,844.00
2018-09-12T06:18:44.871Z,844.00
2018-09-12T06:19:44.707Z,836.00
2018-09-12T06:20:44.730Z,828.00
2018-09-12T06:21:44.740Z,836.00
2018-09-12T06:22:44.758Z,812.00
2018-09-12T06:23:44.771Z,780.00
2018-09-12T06:24:44.786Z,756.00
2018-09-12T06:25:44.817Z,696.00
2018-09-12T06:26:44.817Z,652.00
2018-09-12T06:27:45.176Z,628.00
2018-09-12T06:28:44.851Z,616.00
2018-09-12T06:29:45.179Z,608.00
2018-09-12T06:30:44.992Z,600.00
2018-09-12T06:31:44.907Z,588.00
2018-09-12T06:32:44.913Z,584.00
2018-09-12T06:33:44.929Z,616.00
2018-09-12T06:34:44.945Z,636.00
2018-09-12T06:35:44.990Z,604.00
2018-09-12T06:36:44.993Z,596.00
2018-09-12T06:37:45.026Z,660.00
2018-09-12T06:38:45.020Z,596.00
2018-09-12T06:39:45.025Z,560.00
2018-09-12T06:40:45.047Z,624.00
2018-09-12T06:41:45.054Z,628.00
2018-09-12T06:42:45.069Z,608.00
2018-09-12T06:43:45.109Z,696.00
2018-09-12T06:44:45.120Z,684.00
2018-09-12T06:45:45.137Z,696.00
2018-09-12T06:46:45.150Z,772.00
2018-09-12T06:47:45.154Z,856.00
2018-09-12T06:48:45.167Z,848.00
2018-09-12T06:49:45.182Z,896.00
2018-09-12T06:50:45.229Z,960.00
2018-09-12T06:51:45.329Z,1016.00
2018-09-12T06:52:45.229Z,1008.00
2018-09-12T06:53:45.276Z,988.00
2018-09-12T06:54:45.309Z,1024.00
2018-09-12T06:55:45.292Z,1016.00
2018-09-12T06:56:45.336Z,956.00
2018-09-12T06:57:45.331Z,940.00
2018-09-12T06:58:45.344Z,1048.00
2018-09-12T06:59:45.687Z,1152.00
2018-09-12T07:00:45.474Z,1168.00
2018-09-12T07:01:45.396Z,1184.00
2018-09-12T07:02:45.424Z,1352.00
2018-09-12T07:03:45.408Z,1440.00
2018-09-12T07:04:45.554Z,1476.00
2018-09-12T07:05:45.448Z,1484.00
2018-09-12T07:06:45.470Z,1368.00
2018-09-12T07:07:45.491Z,1136.00
2018-09-12T07:08:45.485Z,1000.00
2018-09-12T07:09:45.500Z,968.00
2018-09-12T07:10:45.529Z,996.00
2018-09-12T07:11:45.568Z,1300.00
2018-09-12T07:12:45.549Z,1544.00
2018-09-12T07:13:45.564Z,1908.00
2018-09-12T07:14:45.581Z,1864.00
2018-09-12T07:15:45.597Z,2100.00
2018-09-12T07:16:45.626Z,2324.00
2018-09-12T07:17:46.138Z,2076.00
2018-09-12T07:18:45.650Z,1916.00
2018-09-12T07:19:46.022Z,1888.00
2018-09-12T07:20:45.717Z,1900.00
2018-09-12T07:21:46.239Z,2016.00
2018-09-12T07:22:46.566Z,2192.00
2018-09-12T07:23:45.726Z,2276.00
2018-09-12T07:24:45.774Z,1948.00
2018-09-12T07:25:45.758Z,1904.00
2018-09-12T07:26:45.897Z,1924.00
2018-09-12T07:27:45.795Z,1896.00
2018-09-12T07:28:45.819Z,1704.00
2018-09-12T07:29:45.838Z,1640.00
2018-09-12T07:30:45.843Z,1688.00
2018-09-12T07:31:45.861Z,1828.00
2018-09-12T07:32:45.874Z,2096.00
2018-09-12T07:33:45.888Z,2244.00
2018-09-12T07:34:45.910Z,2360.00
2018-09-12T07:35:45.991Z,2320.00
2018-09-12T07:36:46.101Z,2300.00
2018-09-12T07:37:45.953Z,2160.00
2018-09-12T07:38:45.967Z,2180.00
2018-09-12T07:39:45.986Z,2084.00
2018-09-12T07:40:46.026Z,2408.00
2018-09-12T07:41:46.103Z,2216.00
2018-09-12T07:42:46.098Z,2336.00
2018-09-12T07:43:46.052Z,2240.00
2018-09-12T07:44:46.855Z,2288.00
2018-09-12T07:45:46.912Z,2040.00
2018-09-12T07:47:46.541Z,2144.00
2018-09-12T07:48:46.370Z,2212.00
2018-09-12T07:49:46.438Z,2104.00
2018-09-12T07:50:46.170Z,2072.00
2018-09-12T07:51:46.223Z,2072.00
2018-09-12T07:52:46.313Z,3200.00
2018-09-12T07:53:46.219Z,3164.00
2018-09-12T07:54:46.284Z,2264.00
2018-09-12T07:55:46.404Z,2112.00
2018-09-12T07:56:46.385Z,1868.00
2018-09-12T07:57:46.278Z,2708.00
2018-09-12T07:58:46.298Z,2684.00
2018-09-12T07:59:46.318Z,2368.00
2018-09-12T08:00:46.329Z,2900.00
2018-09-12T08:01:47.230Z,3296.00
2018-09-12T08:02:46.371Z,3796.00
2018-09-12T08:03:46.474Z,2816.00
2018-09-12T08:04:47.094Z,2512.00
2018-09-12T08:05:46.713Z,2244.00
2018-09-12T08:06:46.707Z,2144.00
2018-09-12T08:07:46.444Z,2336.00
2018-09-12T08:08:46.458Z,2304.00
2018-09-12T08:09:46.492Z,2484.00
2018-09-12T08:10:46.496Z,2944.00
2018-09-12T08:11:46.529Z,2656.00
2018-09-12T08:12:46.528Z,2240.00
2018-09-12T08:13:46.860Z,2124.00
2018-09-12T08:14:46.616Z,2336.00
2018-09-12T08:15:46.638Z,2324.00
2018-09-12T08:18:46.646Z,2152.00
2018-09-12T08:19:46.642Z,2644.00
2018-09-12T08:20:47.035Z,1360.00
2018-09-12T08:21:46.676Z,1408.00
2018-09-12T08:23:46.718Z,2784.00
2018-09-12T08:24:46.720Z,2044.00
2018-09-12T08:25:46.744Z,2392.00
2018-09-12T08:26:46.798Z,1560.00
2018-09-12T08:27:46.778Z,2192.00
2018-09-12T08:28:46.787Z,1992.00
2018-09-12T08:29:46.801Z,1536.00
2018-09-12T08:30:46.917Z,2728.00
2018-09-12T08:31:46.842Z,2760.00
2018-09-12T08:32:46.867Z,2996.00
2018-09-12T08:33:46.876Z,3164.00
2018-09-12T08:34:46.910Z,3076.00
2018-09-12T08:35:47.073Z,3100.00
2018-09-12T08:36:46.917Z,3016.00
2018-09-12T08:37:47.052Z,3024.00
2018-09-12T08:38:47.066Z,2200.00
2018-09-12T08:39:46.989Z,2056.00
2018-09-12T08:40:46.997Z,2228.00
2018-09-12T08:41:47.012Z,3472.00
2018-09-12T08:42:47.017Z,3904.00
2018-09-12T08:43:47.069Z,4656.00
2018-09-12T08:45:47.095Z,4032.00
2018-09-12T08:46:47.130Z,3576.00
2018-09-12T08:47:47.186Z,3460.00
2018-09-12T08:48:47.139Z,3388.00
2018-09-12T08:49:47.434Z,3332.00
2018-09-12T08:50:47.268Z,3232.00
2018-09-12T08:51:47.226Z,3128.00
2018-09-12T08:52:47.287Z,2928.00
2018-09-12T08:53:47.199Z,2712.00
2018-09-12T08:54:47.312Z,2728.00
2018-09-12T08:55:47.235Z,2784.00
2018-09-12T08:56:47.306Z,2836.00
2018-09-12T08:57:47.296Z,2808.00
2018-09-12T08:58:47.278Z,2996.00
2018-09-12T08:59:47.485Z,3740.00
2018-09-12T09:00:47.379Z,3420.00
2018-09-12T09:01:47.334Z,3588.00
2018-09-12T09:02:47.576Z,3704.00
2018-09-12T09:03:47.394Z,3720.00
2018-09-12T09:04:47.378Z,3788.00
2018-09-12T09:05:47.736Z,3612.00
2018-09-12T09:06:47.428Z,3736.00
2018-09-12T09:07:47.436Z,3828.00
2018-09-12T09:08:47.601Z,4060.00
2018-09-12T09:09:47.478Z,3656.00
2018-09-12T09:10:47.499Z,3128.00
2018-09-12T09:11:47.523Z,2756.00
2018-09-12T09:12:47.520Z,2472.00
2018-09-12T09:13:47.829Z,2308.00
2018-09-12T09:14:47.616Z,2200.00
2018-09-12T09:15:47.885Z,2228.00
2018-09-12T09:16:47.589Z,2188.00
2018-09-12T09:17:47.721Z,2236.00
2018-09-12T09:18:47.625Z,2208.00
2018-09-12T09:19:48.127Z,1972.00
2018-09-12T09:20:48.117Z,1724.00
2018-09-12T09:21:47.692Z,1768.00
2018-09-12T09:22:48.046Z,1784.00
2018-09-12T09:23:48.504Z,1744.00
2018-09-12T09:24:48.423Z,1796.00
2018-09-12T09:25:47.910Z,2148.00
2018-09-12T09:26:48.011Z,2412.00
2018-09-12T09:28:47.817Z,2492.00
2018-09-12T09:29:47.795Z,2272.00
2018-09-12T09:30:48.631Z,2204.00
2018-09-12T09:31:47.861Z,2396.00
2018-09-12T09:32:47.866Z,2688.00
2018-09-12T09:33:47.868Z,2848.00
2018-09-12T09:34:48.733Z,2760.00
2018-09-12T09:35:47.961Z,2660.00
2018-09-12T09:36:47.905Z,2732.00
2018-09-12T09:37:48.507Z,2724.00
2018-09-12T09:38:47.941Z,2680.00
2018-09-12T09:39:47.957Z,2672.00
2018-09-12T09:40:48.056Z,2680.00
2018-09-12T09:41:48.010Z,2728.00
2018-09-12T09:42:48.054Z,2816.00
2018-09-12T09:43:48.054Z,2712.00
2018-09-12T09:44:48.167Z,2828.00
2018-09-12T09:45:48.064Z,3132.00
2018-09-12T09:46:48.179Z,3428.00
2018-09-12T09:47:48.156Z,3540.00
2018-09-12T09:48:48.105Z,3576.00
2018-09-12T09:49:48.131Z,3596.00
2018-09-12T09:50:48.262Z,3608.00
2018-09-12T09:51:48.216Z,3600.00
2018-09-12T09:52:48.176Z,3548.00
2018-09-12T09:53:48.188Z,3548.00
2018-09-12T09:54:48.253Z,3652.00
2018-09-12T09:55:48.223Z,3784.00
2018-09-12T09:56:48.469Z,3916.00
2018-09-12T09:57:48.635Z,3996.00
2018-09-12T09:58:48.299Z,4116.00
2018-09-12T09:59:48.287Z,4124.00
2018-09-12T10:00:48.353Z,4156.00
2018-09-12T10:01:48.344Z,4144.00
2018-09-12T10:02:48.376Z,4100.00
2018-09-12T10:03:48.388Z,3996.00
2018-09-12T10:05:48.469Z,3808.00
2018-09-12T10:06:48.408Z,3848.00
2018-09-12T10:07:48.423Z,3844.00
2018-09-12T10:08:48.440Z,3864.00
2018-09-12T10:09:48.456Z,3932.00
2018-09-12T10:10:49.128Z,3968.00
2018-09-12T10:12:48.551Z,4036.00
2018-09-12T10:13:48.552Z,4100.00
2018-09-12T10:14:48.556Z,4140.00
2018-09-12T10:15:48.560Z,4116.00
2018-09-12T10:16:48.640Z,4020.00
2018-09-12T10:17:48.596Z,3992.00
2018-09-12T10:18:48.615Z,3924.00
2018-09-12T10:19:48.651Z,3968.00
2018-09-12T10:20:48.665Z,3984.00
2018-09-12T10:21:48.726Z,3756.00
2018-09-12T10:22:48.733Z,3488.00
2018-09-12T10:23:48.711Z,3892.00
2018-09-12T10:24:49.022Z,2636.00
2018-09-12T10:25:48.880Z,2684.00
2018-09-12T10:26:48.882Z,2820.00
2018-09-12T10:27:48.770Z,2224.00
2018-09-12T10:28:48.788Z,1576.00
2018-09-12T10:29:48.802Z,1148.00
2018-09-12T10:30:49.159Z,840.00
2018-09-12T10:32:48.862Z,608.00
2018-09-12T10:33:50.899Z,632.00
2018-09-12T10:34:49.321Z,808.00
2018-09-12T10:35:48.907Z,1204.00
2018-09-12T10:36:48.921Z,1752.00
2018-09-12T10:37:48.937Z,2036.00
2018-09-12T10:38:48.960Z,1772.00
2018-09-12T10:39:48.971Z,1476.00
2018-09-12T10:40:49.013Z,1256.00
2018-09-12T10:41:49.016Z,1172.00
2018-09-12T10:42:49.370Z,1228.00
2018-09-12T10:43:49.053Z,1404.00
2018-09-12T10:44:49.054Z,1516.00
2018-09-12T10:45:49.375Z,1524.00
2018-09-12T10:46:49.087Z,1572.00
2018-09-12T10:47:49.107Z,1692.00
2018-09-12T10:48:49.122Z,2036.00
2018-09-12T10:49:49.142Z,2344.00
2018-09-12T10:50:49.833Z,2756.00
2018-09-12T10:51:49.326Z,3196.00
2018-09-12T10:52:49.938Z,3500.00
2018-09-12T10:53:49.205Z,3328.00
2018-09-12T10:54:49.267Z,3020.00
2018-09-12T10:55:49.239Z,2844.00
2018-09-12T10:56:49.252Z,2900.00
2018-09-12T10:57:49.266Z,2888.00
2018-09-12T10:58:49.285Z,2820.00
2018-09-12T10:59:49.302Z,2632.00
2018-09-12T11:00:49.319Z,2352.00
2018-09-12T11:01:49.334Z,2040.00
2018-09-12T11:02:49.352Z,1860.00
2018-09-12T11:03:49.368Z,1916.00
2018-09-12T11:04:49.385Z,1964.00
2018-09-12T11:05:49.401Z,2116.00
2018-09-12T11:06:49.419Z,2508.00
2018-09-12T11:07:49.437Z,3116.00
2018-09-12T11:08:49.722Z,3768.00
2018-09-12T11:09:49.508Z,4620.00
2018-09-12T11:10:49.489Z,5332.00
2018-09-12T11:11:49.499Z,5316.00
2018-09-12T11:12:49.520Z,5156.00
2018-09-12T11:14:49.552Z,4608.00
2018-09-12T11:15:49.566Z,4024.00
2018-09-12T11:16:49.595Z,3772.00
2018-09-12T11:17:49.609Z,3684.00
2018-09-12T11:18:49.619Z,3536.00
2018-09-12T11:19:49.638Z,3476.00
2018-09-12T11:20:49.666Z,3516.00
2018-09-12T11:21:49.694Z,3596.00
2018-09-12T11:22:49.698Z,3280.00
2018-09-12T11:23:49.734Z,3096.00
2018-09-12T11:24:49.715Z,3132.00
2018-09-12T11:25:49.734Z,3448.00
2018-09-12T11:26:49.930Z,3672.00
2018-09-12T11:27:49.809Z,3612.00
2018-09-12T11:28:49.783Z,3804.00
2018-09-12T11:29:49.806Z,4268.00
2018-09-12T11:30:49.893Z,4668.00
2018-09-12T11:31:49.938Z,4552.00
2018-09-12T11:32:49.849Z,4432.00
2018-09-12T11:33:49.867Z,4472.00
2018-09-12T11:34:49.892Z,4576.00
2018-09-12T11:35:49.901Z,4704.00
2018-09-12T11:36:49.917Z,4804.00
2018-09-12T11:37:50.991Z,4756.00
2018-09-12T11:38:49.951Z,4796.00
2018-09-12T11:39:49.965Z,4904.00
2018-09-12T11:40:49.983Z,4996.00
2018-09-12T11:41:50.027Z,5156.00
2018-09-12T11:42:50.755Z,4884.00
2018-09-12T11:43:50.041Z,4636.00
2018-09-12T11:44:50.050Z,4560.00
2018-09-12T11:45:50.104Z,4040.00
2018-09-12T11:46:50.094Z,3936.00
2018-09-12T11:47:50.135Z,3668.00
2018-09-12T11:48:50.375Z,3760.00
2018-09-12T11:49:51.037Z,3724.00
2018-09-12T11:50:50.157Z,3552.00
2018-09-12T11:51:51.279Z,3092.00
2018-09-12T11:52:50.633Z,2560.00
2018-09-12T11:53:51.313Z,2232.00
2018-09-12T11:54:50.350Z,2028.00
2018-09-12T11:55:50.747Z,1860.00
2018-09-12T11:56:50.270Z,1664.00
2018-09-12T11:57:50.804Z,1376.00
2018-09-12T11:58:50.363Z,1132.00
2018-09-12T11:59:50.458Z,988.00
2018-09-12T12:00:50.319Z,912.00
2018-09-12T12:01:50.343Z,888.00
2018-09-12T12:02:50.645Z,1032.00
2018-09-12T12:03:50.364Z,1300.00
2018-09-12T12:04:50.472Z,1452.00
2018-09-12T12:05:50.396Z,1564.00
2018-09-12T12:06:50.506Z,1552.00
2018-09-12T12:07:50.429Z,1688.00
2018-09-12T12:08:50.452Z,2120.00
2018-09-12T12:09:50.471Z,2524.00
2018-09-12T12:10:50.486Z,2592.00
2018-09-12T12:11:50.498Z,2412.00
2018-09-12T12:12:50.505Z,2216.00
2018-09-12T12:13:50.521Z,2256.00
2018-09-12T12:14:50.542Z,2492.00
2018-09-12T12:15:50.618Z,2492.00
2018-09-12T12:16:50.575Z,2292.00
2018-09-12T12:17:50.589Z,2056.00
2018-09-12T12:18:50.616Z,1888.00
2018-09-12T12:19:50.627Z,1972.00
2018-09-12T12:20:50.638Z,2168.00
2018-09-12T12:21:51.210Z,2324.00
2018-09-12T12:22:50.690Z,2540.00
2018-09-12T12:23:50.757Z,2484.00
2018-09-12T12:24:50.750Z,2220.00
2018-09-12T12:25:50.718Z,2052.00
2018-09-12T12:26:50.736Z,1900.00
2018-09-12T12:27:50.748Z,1736.00
2018-09-12T12:28:50.768Z,1632.00
2018-09-12T12:29:50.781Z,1620.00
2018-09-12T12:30:50.797Z,1620.00
2018-09-12T12:31:50.811Z,1636.00
2018-09-12T12:32:50.841Z,1628.00
2018-09-12T12:33:50.844Z,1516.00
2018-09-12T12:34:50.863Z,1444.00
2018-09-12T12:35:51.024Z,1460.00
2018-09-12T12:36:51.037Z,1484.00
2018-09-12T12:37:51.598Z,1380.00
2018-09-12T12:38:50.930Z,1288.00
2018-09-12T12:39:50.939Z,1232.00
2018-09-12T12:40:50.976Z,1200.00
2018-09-12T12:41:50.985Z,1176.00
2018-09-12T12:42:51.052Z,1100.00
2018-09-12T12:43:51.002Z,1128.00
2018-09-12T12:44:51.019Z,1180.00
2018-09-12T12:45:51.192Z,1096.00
2018-09-12T12:46:51.052Z,1028.00
2018-09-12T12:47:51.067Z,960.00
2018-09-12T12:48:51.090Z,940.00
2018-09-12T12:49:51.108Z,980.00
2018-09-12T12:50:51.124Z,856.00